Time;durP1;ratioP1;P1;durP2;ratioP2;P2;SDS_P1;SDS_P2;PMS_P1;PMS_P2;Temp;Humidity;BMP_temperature;BMP_pressure;BME280_temperature;BME280_humidity;BME280_pressure;Samples;Min_cycle;Max_cycle;Signal;HPM_P1;HPM_P2
2023/02/19 07:43:53;;;;;;;3.53;3.23;;;7.50;99.90;;;;;;5132751;27;20270;-77
2023/02/19 08:08:16;;;;;;;3.30;3.00;;;7.80;99.90;;;;;;5134535;27;20279;-78
2023/02/19 08:17:31;;;;;;;2.70;2.37;;;7.90;99.90;;;;;;5135093;27;20263;-78
2023/02/19 08:20:58;;;;;;;2.40;2.20;;;7.90;99.90;;;;;;5133999;27;20278;-77
2023/02/19 08:23:25;;;;;;;2.67;2.47;;;8.00;99.90;;;;;;5132610;28;20171;-76
2023/02/19 08:30:39;;;;;;;5.73;4.13;;;8.00;99.90;;;;;;5133519;27;20749;-77
2023/02/19 08:33:50;;;;;;;5.40;3.57;;;8.20;99.90;;;;;;5133942;27;20272;-77
2023/02/19 08:36:16;;;;;;;3.60;2.90;;;8.20;99.90;;;;;;5132768;28;20186;-76
2023/02/19 08:38:42;;;;;;;2.03;1.83;;;8.40;99.90;;;;;;5131352;28;20507;-76
2023/02/19 08:41:10;;;;;;;3.13;2.83;;;8.40;99.90;;;;;;5132290;27;20174;-76
2023/02/19 08:43:36;;;;;;;2.43;2.23;;;9.00;99.90;;;;;;5132107;28;20178;-77
2023/02/19 08:46:03;;;;;;;2.63;2.43;;;9.70;99.90;;;;;;5133196;27;20201;-76
2023/02/19 08:48:29;;;;;;;2.60;2.40;;;9.70;99.90;;;;;;5131603;27;20175;-76
2023/02/19 08:50:56;;;;;;;2.70;2.20;;;10.40;99.90;;;;;;5131938;27;20178;-76
2023/02/19 08:53:23;;;;;;;1.67;1.57;;;10.50;99.90;;;;;;5132066;27;20194;-77
2023/02/19 08:55:49;;;;;;;3.03;2.50;;;9.90;99.90;;;;;;5132696;27;20194;-77
2023/02/19 08:58:15;;;;;;;4.40;3.00;;;10.40;99.90;;;;;;5132550;27;20176;-77
2023/02/19 09:00:40;;;;;;;3.87;2.33;;;10.30;99.90;;;;;;5130836;28;20179;-76
2023/02/19 09:03:06;;;;;;;2.80;1.60;;;9.90;99.90;;;;;;5131854;27;20532;-78
2023/02/19 09:05:32;;;;;;;2.47;2.27;;;9.80;99.90;;;;;;5132526;27;20587;-77
2023/02/19 09:07:57;;;;;;;4.07;3.70;;;9.70;99.90;;;;;;5132778;27;20203;-78
2023/02/19 09:10:23;;;;;;;3.30;2.30;;;9.40;99.90;;;;;;5132937;27;20182;-78
2023/02/19 09:12:48;;;;;;;2.37;1.70;;;9.10;99.90;;;;;;5133804;27;20233;-78
2023/02/19 09:15:17;;;;;;;1.50;1.40;;;8.90;99.90;;;;;;5135554;28;20187;-78
2023/02/19 09:17:43;;;;;;;2.57;1.13;;;8.90;99.90;;;;;;5132249;27;20644;-77
2023/02/19 09:20:09;;;;;;;3.23;1.90;;;8.90;99.90;;;;;;5132664;27;20211;-77
2023/02/19 09:22:35;;;;;;;1.77;1.53;;;9.30;99.90;;;;;;5132217;27;20195;-78
2023/02/19 09:25:01;;;;;;;2.03;1.63;;;9.40;99.90;;;;;;5131358;28;20199;-78
2023/02/19 09:27:27;;;;;;;1.97;1.83;;;9.60;99.90;;;;;;5130613;28;20182;-79
2023/02/19 09:29:53;;;;;;;1.80;1.40;;;9.70;99.90;;;;;;5130691;28;20179;-76
2023/02/19 09:32:19;;;;;;;1.70;1.60;;;10.00;99.90;;;;;;5131960;27;20234;-78
2023/02/19 09:34:45;;;;;;;1.73;1.63;;;9.90;99.90;;;;;;5131885;27;20191;-78
2023/02/19 09:37:11;;;;;;;2.00;1.63;;;9.60;99.90;;;;;;5130732;28;20200;-77
2023/02/19 09:39:37;;;;;;;2.23;1.67;;;9.40;99.90;;;;;;5131430;27;20179;-77
2023/02/19 09:42:17;;;;;;;1.40;1.30;;;9.20;99.90;;;;;;5131766;27;20236;-76
2023/02/19 09:44:56;;;;;;;1.63;1.53;;;9.10;99.90;;;;;;5120495;27;20199;-76
2023/02/19 09:47:27;;;;;;;1.40;1.30;;;9.00;99.90;;;;;;5118475;27;20233;-77
2023/02/19 09:49:57;;;;;;;1.50;1.40;;;9.00;99.90;;;;;;5118079;28;20172;-77
2023/02/19 09:52:26;;;;;;;2.17;1.43;;;8.90;99.90;;;;;;5116911;28;20207;-77
2023/02/19 09:54:56;;;;;;;2.20;1.53;;;8.90;99.90;;;;;;5117244;28;20199;-76
2023/02/19 09:57:24;;;;;;;1.87;1.57;;;9.00;99.90;;;;;;5117692;28;20197;-75
2023/02/19 10:00:00;;;;;;;2.57;2.17;;;9.10;99.90;;;;;;5117725;27;20171;-77
2023/02/19 10:02:26;;;;;;;2.43;2.13;;;9.10;99.90;;;;;;5118069;28;20175;-76
2023/02/19 10:04:53;;;;;;;1.33;1.13;;;9.10;99.90;;;;;;5116705;28;20703;-77
2023/02/19 10:07:43;;;;;;;1.80;1.70;;;9.00;99.90;;;;;;5117857;28;20180;-77
2023/02/19 10:10:11;;;;;;;2.63;1.50;;;9.00;99.90;;;;;;5118537;28;20527;-78
2023/02/19 10:12:40;;;;;;;4.27;2.53;;;8.90;99.90;;;;;;5116423;28;20233;-78
2023/02/19 10:15:11;;;;;;;3.00;1.90;;;8.90;99.90;;;;;;5117903;28;20222;-78
2023/02/19 10:17:36;;;;;;;2.17;1.60;;;8.80;99.90;;;;;;5121401;28;20196;-78
2023/02/19 10:20:03;;;;;;;5.20;4.10;;;8.70;99.90;;;;;;5121779;28;20164;-78
2023/02/19 10:22:31;;;;;;;5.00;3.33;;;8.70;99.90;;;;;;5120727;28;20514;-77
2023/02/19 10:24:57;;;;;;;2.90;2.10;;;8.80;99.90;;;;;;5124577;28;20231;-77
2023/02/19 10:27:29;;;;;;;1.60;1.50;;;8.70;99.90;;;;;;5123499;28;20175;-77
2023/02/19 10:29:56;;;;;;;2.80;2.27;;;8.50;99.90;;;;;;5125465;28;20167;-77
2023/02/19 10:32:24;;;;;;;4.47;2.67;;;8.00;99.90;;;;;;5117398;28;20200;-78
2023/02/19 10:35:12;;;;;;;2.37;1.67;;;8.20;99.90;;;;;;5117726;28;20266;-78
2023/02/19 10:37:43;;;;;;;1.80;1.50;;;8.30;99.90;;;;;;5117204;28;20717;-78
2023/02/19 10:40:21;;;;;;;10.30;6.30;;;8.20;99.90;;;;;;5116675;28;20174;-78
2023/02/19 10:42:52;;;;;;;25.43;14.83;;;8.10;99.90;;;;;;5122653;28;20178;-78
2023/02/19 10:45:22;;;;;;;6.83;4.30;;;8.00;99.90;;;;;;5116683;28;20241;-76
2023/02/19 10:47:48;;;;;;;9.63;5.57;;;8.20;99.90;;;;;;5116494;28;20175;-76
2023/02/19 10:50:24;;;;;;;30.83;15.37;;;8.60;99.90;;;;;;5116757;28;20525;-76
2023/02/19 10:52:55;;;;;;;5.87;3.90;;;8.80;99.90;;;;;;5115037;28;20233;-76
2023/02/19 10:55:34;;;;;;;3.73;2.80;;;9.20;99.90;;;;;;5115903;28;20587;-77
2023/02/19 10:58:26;;;;;;;10.10;6.20;;;9.10;99.90;;;;;;5116721;28;20319;-78
2023/02/19 11:01:14;;;;;;;1.97;1.63;;;8.50;99.90;;;;;;5114512;28;20190;-77
2023/02/19 11:03:40;;;;;;;2.10;1.70;;;8.10;99.90;;;;;;5116987;27;20170;-77
2023/02/19 11:06:08;;;;;;;1.33;1.20;;;7.80;99.90;;;;;;5117405;28;20197;-79
2023/02/19 11:08:56;;;;;;;0.87;0.80;;;7.60;99.90;;;;;;5117838;28;20171;-78
2023/02/19 11:11:34;;;;;;;1.23;1.00;;;7.40;99.90;;;;;;5110857;28;20565;-78
2023/02/19 11:14:13;;;;;;;1.50;1.37;;;7.40;99.90;;;;;;5118227;28;20724;-79
2023/02/19 11:16:45;;;;;;;1.40;1.30;;;7.30;99.90;;;;;;5120348;28;20187;-79
2023/02/19 11:24:02;;;;;;;1.20;1.10;;;7.10;99.90;;;;;;5135558;27;20271;-78
2023/02/19 11:28:38;;;;;;;1.50;1.23;;;7.20;99.90;;;;;;5134235;27;20285;-77
2023/02/19 11:32:46;;;;;;;0.97;0.90;;;7.20;99.90;;;;;;5073282;28;20536;-78
2023/02/19 11:36:14;;;;;;;2.20;2.03;;;7.20;99.90;;;;;;5134729;27;20283;-80
2023/02/19 11:38:40;;;;;;;2.80;2.60;;;7.30;99.90;;;;;;5134124;27;20256;-79
2023/02/19 11:41:14;;;;;;;3.77;3.17;;;7.30;99.90;;;;;;5134126;27;20248;-78
2023/02/19 12:57:30;;;;;;;3.33;2.60;;;7.40;99.90;;;;;;5134983;27;20270;-81
2023/02/19 13:03:40;;;;;;;4.07;3.20;;;7.60;99.90;;;;;;5135278;27;20269;-81
2023/02/19 13:07:36;;;;;;;4.00;2.90;;;7.80;99.90;;;;;;5135005;27;20283;-81
2023/02/19 13:10:17;;;;;;;2.83;2.57;;;8.00;99.90;;;;;;5116679;28;20173;-81
2023/02/19 13:12:45;;;;;;;3.30;2.40;;;8.40;99.90;;;;;;5116197;28;20580;-81
2023/02/19 13:15:26;;;;;;;2.73;2.03;;;8.80;99.90;;;;;;5119983;28;20194;-81
2023/02/19 13:17:56;;;;;;;3.90;2.73;;;8.90;99.90;;;;;;5134008;28;20246;-81
2023/02/19 13:20:33;;;;;;;2.73;2.30;;;9.10;99.90;;;;;;5133285;28;20179;-81
2023/02/19 13:25:56;;;;;;;4.00;2.80;;;9.40;99.90;;;;;;5134891;28;20228;-81
2023/02/19 13:49:36;;;;;;;1.90;1.60;;;8.30;99.90;;;;;;5133849;27;20566;-79
2023/02/19 13:56:02;;;;;;;1.63;1.47;;;8.40;99.90;;;;;;5139961;27;20289;-80
2023/02/19 15:22:35;;;;;;;6.57;3.50;;;7.70;99.90;;;;;;5114195;27;20470;-82
